Time;durP1;ratioP1;P1;durP2;ratioP2;P2;SDS_P1;SDS_P2;PMS_P1;PMS_P2;Temp;Humidity;BMP_temperature;BMP_pressure;BME280_temperature;BME280_humidity;BME280_pressure;Samples;Min_cycle;Max_cycle;Signal;HPM_P1;HPM_P2
2022/12/04 00:01:29;;;;;;;22.20;9.30;;;0.70;99.90;;;;;;5011405;28;20819;-67
2022/12/04 00:03:59;;;;;;;24.57;10.03;;;0.70;99.90;;;;;;5011550;28;20524;-67
2022/12/04 00:06:25;;;;;;;20.23;9.20;;;0.70;99.90;;;;;;5012174;28;20178;-67
2022/12/04 00:08:51;;;;;;;27.80;9.17;;;0.70;99.90;;;;;;5008340;28;20434;-67
2022/12/04 00:11:20;;;;;;;24.37;9.70;;;0.60;99.90;;;;;;5008053;28;20524;-67
2022/12/04 00:13:46;;;;;;;20.13;9.37;;;0.60;99.90;;;;;;5009531;28;20513;-67
2022/12/04 00:16:14;;;;;;;23.33;9.47;;;0.70;99.90;;;;;;5011218;28;20422;-67
2022/12/04 00:18:40;;;;;;;22.03;10.43;;;0.70;99.90;;;;;;5010246;28;21100;-67
2022/12/04 00:21:09;;;;;;;27.37;10.07;;;0.70;99.90;;;;;;5013855;28;20429;-67
2022/12/04 00:23:36;;;;;;;21.80;10.10;;;0.70;99.90;;;;;;5011150;28;20215;-67
2022/12/04 00:26:04;;;;;;;21.17;10.33;;;0.70;99.90;;;;;;5011055;28;21963;-67
2022/12/04 00:28:30;;;;;;;29.43;11.30;;;0.70;99.90;;;;;;5009174;28;20468;-67
2022/12/04 00:30:56;;;;;;;18.13;9.23;;;0.70;99.90;;;;;;5009934;28;20448;-67
2022/12/04 00:33:22;;;;;;;30.33;10.10;;;0.70;99.90;;;;;;5009825;28;20434;-67
2022/12/04 00:35:47;;;;;;;14.87;8.07;;;0.70;99.90;;;;;;4992978;28;20202;-68
2022/12/04 00:38:13;;;;;;;18.47;9.10;;;0.70;99.90;;;;;;5009264;28;20632;-68
2022/12/04 00:40:38;;;;;;;19.00;8.83;;;0.70;99.90;;;;;;5010184;28;20289;-67
2022/12/04 00:43:04;;;;;;;32.07;9.50;;;0.80;99.90;;;;;;5009748;28;20218;-67
2022/12/04 00:45:29;;;;;;;25.10;10.17;;;0.80;99.90;;;;;;5010060;28;20643;-67
2022/12/04 00:47:55;;;;;;;28.70;10.57;;;0.80;99.90;;;;;;5009605;28;20345;-67
2022/12/04 00:50:21;;;;;;;20.03;10.00;;;0.80;99.90;;;;;;5010405;28;20176;-67
2022/12/04 00:52:46;;;;;;;24.13;10.47;;;0.80;99.90;;;;;;5010528;28;20178;-67
2022/12/04 00:55:12;;;;;;;22.50;11.77;;;0.80;99.90;;;;;;5011502;28;20258;-67
2022/12/04 00:57:37;;;;;;;28.37;11.90;;;0.70;99.90;;;;;;5010125;28;20624;-67
2022/12/04 01:00:04;;;;;;;29.67;12.63;;;0.70;99.90;;;;;;5011078;28;20190;-67
2022/12/04 01:02:30;;;;;;;33.37;13.27;;;0.70;99.90;;;;;;5018933;28;20774;-67
2022/12/04 01:04:55;;;;;;;26.97;13.30;;;0.80;99.90;;;;;;5015159;28;20566;-67
2022/12/04 01:07:21;;;;;;;28.63;13.20;;;0.70;99.90;;;;;;5009485;28;20183;-67
2022/12/04 01:09:47;;;;;;;34.97;12.17;;;0.80;99.90;;;;;;5009853;28;20179;-67
2022/12/04 01:12:12;;;;;;;48.33;14.80;;;0.80;99.90;;;;;;5009019;28;20197;-67
2022/12/04 01:14:38;;;;;;;35.47;11.57;;;0.80;99.90;;;;;;5009052;28;20182;-67
2022/12/04 01:17:04;;;;;;;31.73;12.93;;;0.60;99.90;;;;;;5008362;28;20256;-67
2022/12/04 01:19:29;;;;;;;26.17;11.67;;;0.70;99.90;;;;;;5010064;28;20656;-67
2022/12/04 01:21:55;;;;;;;40.70;16.00;;;0.70;99.90;;;;;;5009692;28;20493;-67
2022/12/04 01:24:20;;;;;;;26.50;13.73;;;0.70;99.90;;;;;;5009719;28;20328;-67
2022/12/04 01:26:46;;;;;;;30.27;13.77;;;0.70;99.90;;;;;;5009154;28;20194;-67
2022/12/04 01:29:11;;;;;;;31.57;15.20;;;0.80;99.90;;;;;;5008448;28;20192;-67
2022/12/04 01:31:37;;;;;;;38.37;13.90;;;0.80;99.90;;;;;;5009101;28;20186;-67
2022/12/04 01:34:03;;;;;;;39.40;13.37;;;0.80;99.90;;;;;;5010708;28;20183;-67
2022/12/04 01:36:28;;;;;;;30.03;13.77;;;0.70;99.90;;;;;;5006526;28;20237;-67
2022/12/04 01:38:55;;;;;;;28.77;13.93;;;0.80;99.90;;;;;;5007934;28;20203;-68
2022/12/04 01:41:28;;;;;;;29.20;13.10;;;0.70;99.90;;;;;;5010481;28;20644;-67
2022/12/04 01:44:16;;;;;;;21.63;12.20;;;0.70;99.90;;;;;;5008586;28;20512;-67
2022/12/04 01:46:45;;;;;;;29.10;12.93;;;0.70;99.90;;;;;;5003939;28;20438;-67
2022/12/04 01:49:24;;;;;;;33.10;11.07;;;0.70;99.90;;;;;;5008820;28;20450;-67
2022/12/04 01:52:11;;;;;;;37.90;13.50;;;0.70;99.90;;;;;;5005232;28;20445;-67
2022/12/04 01:54:42;;;;;;;20.80;10.60;;;0.80;99.90;;;;;;5004070;28;20536;-67
2022/12/04 01:57:17;;;;;;;29.20;13.23;;;0.80;99.90;;;;;;5009508;28;20461;-67
2022/12/04 01:59:57;;;;;;;32.07;12.73;;;0.70;99.90;;;;;;5009875;28;20425;-67
2022/12/04 02:02:32;;;;;;;26.40;12.47;;;0.60;99.90;;;;;;5008921;28;20426;-67
2022/12/04 02:04:59;;;;;;;23.83;10.50;;;0.60;99.90;;;;;;5010285;28;20762;-67
2022/12/04 02:07:25;;;;;;;26.13;10.47;;;0.60;99.90;;;;;;5009462;28;20795;-67
2022/12/04 02:09:54;;;;;;;25.83;11.33;;;0.70;99.90;;;;;;5008128;28;20442;-67
2022/12/04 02:12:37;;;;;;;27.97;12.00;;;0.70;99.90;;;;;;5008494;28;20438;-67
2022/12/04 02:15:42;;;;;;;33.70;12.93;;;0.70;99.90;;;;;;5009642;28;20918;-67
2022/12/04 02:18:21;;;;;;;30.43;13.57;;;0.70;99.90;;;;;;5012505;28;21089;-67
2022/12/04 02:21:11;;;;;;;26.83;12.17;;;0.70;99.90;;;;;;5019087;28;20902;-67
2022/12/04 02:23:45;;;;;;;28.40;11.57;;;0.80;99.90;;;;;;5011260;28;20509;-67
2022/12/04 02:26:38;;;;;;;31.87;14.67;;;0.70;99.90;;;;;;5016236;28;20437;-67
2022/12/04 02:29:19;;;;;;;28.30;12.10;;;0.80;99.90;;;;;;5011044;28;20434;-68
2022/12/04 02:31:57;;;;;;;27.00;12.03;;;0.70;99.90;;;;;;5011068;28;20433;-67
2022/12/04 02:34:38;;;;;;;38.50;13.57;;;0.80;99.90;;;;;;5010410;28;20444;-67
2022/12/04 02:37:30;;;;;;;22.73;10.80;;;0.80;99.90;;;;;;5012164;28;20536;-68
2022/12/04 02:40:02;;;;;;;32.70;12.80;;;0.80;99.90;;;;;;5013329;28;20430;-68
2022/12/04 02:42:37;;;;;;;30.27;11.37;;;0.80;99.90;;;;;;5006276;28;20473;-67
2022/12/04 02:45:09;;;;;;;21.60;10.77;;;0.80;99.90;;;;;;5010663;28;20465;-67
2022/12/04 02:47:36;;;;;;;25.60;12.37;;;0.80;99.90;;;;;;5011659;28;20441;-68
2022/12/04 02:50:07;;;;;;;21.23;10.37;;;0.80;99.90;;;;;;5013263;28;20488;-67
2022/12/04 02:52:37;;;;;;;31.90;14.10;;;0.80;99.90;;;;;;5010545;28;20552;-67
2022/12/04 02:55:34;;;;;;;22.93;11.60;;;0.80;99.90;;;;;;5009401;28;20550;-67
2022/12/04 02:58:12;;;;;;;33.90;13.00;;;0.80;99.90;;;;;;5002886;28;20485;-67
2022/12/04 03:00:42;;;;;;;33.33;14.60;;;0.80;99.90;;;;;;5009986;28;20938;-68
2022/12/04 03:03:12;;;;;;;25.97;12.00;;;0.80;99.90;;;;;;5010808;28;20473;-67
2022/12/04 03:05:45;;;;;;;31.57;13.43;;;0.80;99.90;;;;;;5011255;28;20530;-67
2022/12/04 03:08:17;;;;;;;37.50;14.00;;;0.80;99.90;;;;;;5011513;28;20437;-67
2022/12/04 03:10:50;;;;;;;31.53;12.77;;;0.80;99.90;;;;;;5013132;28;20422;-67
2022/12/04 03:13:39;;;;;;;28.87;12.10;;;0.80;99.90;;;;;;5010494;28;20454;-67
2022/12/04 03:16:16;;;;;;;28.13;12.20;;;0.80;99.90;;;;;;5009687;28;20442;-68
2022/12/04 03:19:00;;;;;;;26.63;12.30;;;0.80;99.90;;;;;;5011653;28;20452;-67
2022/12/04 03:21:31;;;;;;;25.53;11.47;;;0.80;99.90;;;;;;5011556;28;20425;-67
2022/12/04 03:24:16;;;;;;;25.43;11.47;;;0.80;99.90;;;;;;5008563;28;20465;-68
2022/12/04 03:26:49;;;;;;;23.50;10.77;;;0.80;99.90;;;;;;5014021;28;20769;-67
2022/12/04 03:29:26;;;;;;;31.17;14.17;;;0.80;99.90;;;;;;5013788;28;20414;-67
2022/12/04 03:31:59;;;;;;;35.60;12.20;;;0.80;99.90;;;;;;5020250;28;20406;-68
2022/12/04 03:34:31;;;;;;;23.23;9.73;;;0.80;99.90;;;;;;5010137;28;20489;-67
2022/12/04 03:37:09;;;;;;;26.03;11.80;;;0.80;99.90;;;;;;5011543;28;20434;-67
2022/12/04 03:40:08;;;;;;;24.17;12.67;;;0.80;99.90;;;;;;5004882;28;20438;-67
2022/12/04 03:42:44;;;;;;;28.30;11.73;;;0.80;99.90;;;;;;4999469;28;20947;-67
2022/12/04 03:45:19;;;;;;;27.50;12.00;;;0.80;99.90;;;;;;5009805;28;20472;-68
2022/12/04 03:47:55;;;;;;;34.03;12.13;;;0.80;99.90;;;;;;5009342;28;20515;-67
2022/12/04 03:50:25;;;;;;;22.00;9.40;;;0.80;99.90;;;;;;5011410;28;20927;-67
2022/12/04 03:52:53;;;;;;;21.77;11.63;;;0.80;99.90;;;;;;5010871;28;20458;-68
2022/12/04 03:55:27;;;;;;;27.93;12.17;;;0.80;99.90;;;;;;5010584;28;20446;-68
2022/12/04 03:57:58;;;;;;;25.13;10.97;;;0.70;99.90;;;;;;5011975;28;20418;-67
2022/12/04 04:00:24;;;;;;;27.03;10.87;;;0.70;99.90;;;;;;5011497;28;20422;-67
2022/12/04 04:02:56;;;;;;;21.50;10.27;;;0.70;99.90;;;;;;5011170;28;20428;-68
2022/12/04 04:05:24;;;;;;;19.20;10.00;;;0.70;99.90;;;;;;5010723;28;20237;-67
2022/12/04 04:07:51;;;;;;;16.87;8.23;;;0.70;99.90;;;;;;5011548;28;20457;-67
2022/12/04 04:10:21;;;;;;;19.10;9.87;;;0.70;99.90;;;;;;5003986;28;20438;-67
2022/12/04 04:24:15;;;;;;;19.90;9.20;;;0.80;99.90;;;;;;5005501;28;20775;-68
2022/12/04 04:26:45;;;;;;;21.33;10.07;;;0.80;99.90;;;;;;5015150;28;20437;-67
2022/12/04 04:29:11;;;;;;;13.70;7.70;;;0.80;99.90;;;;;;5008771;28;20454;-67
2022/12/04 04:31:45;;;;;;;27.43;10.40;;;0.70;99.90;;;;;;5006376;28;20565;-67
2022/12/04 04:34:49;;;;;;;16.60;8.60;;;0.70;99.90;;;;;;5006048;28;20433;-67
2022/12/04 04:37:14;;;;;;;21.67;9.70;;;0.60;99.90;;;;;;5010192;28;20456;-67
2022/12/04 04:39:59;;;;;;;18.70;8.53;;;0.60;99.90;;;;;;5009655;28;20772;-67
2022/12/04 04:42:33;;;;;;;16.80;8.60;;;0.60;99.90;;;;;;5010006;28;20269;-67
2022/12/04 04:45:17;;;;;;;23.90;10.17;;;0.60;99.90;;;;;;5008932;28;20497;-67
2022/12/04 04:47:51;;;;;;;25.50;9.77;;;0.70;99.90;;;;;;5008505;28;20433;-67
2022/12/04 04:50:18;;;;;;;23.60;9.07;;;0.70;99.90;;;;;;5008830;28;20511;-67
2022/12/04 04:52:48;;;;;;;17.33;8.10;;;0.70;99.90;;;;;;5007585;28;20429;-67
2022/12/04 04:55:16;;;;;;;23.17;8.73;;;0.80;99.90;;;;;;5006786;28;20534;-67
2022/12/04 04:57:42;;;;;;;19.50;9.40;;;0.80;99.90;;;;;;5008820;28;20438;-68
2022/12/04 05:00:20;;;;;;;22.67;8.90;;;0.80;99.90;;;;;;5002887;28;20446;-67
2022/12/04 05:02:48;;;;;;;23.60;8.20;;;0.70;99.90;;;;;;5008577;28;20437;-67
2022/12/04 05:05:13;;;;;;;18.33;7.80;;;0.80;99.90;;;;;;5008074;28;20476;-67
2022/12/04 05:07:39;;;;;;;19.80;8.90;;;0.80;99.90;;;;;;5009716;28;20950;-67
2022/12/04 05:10:05;;;;;;;14.30;7.47;;;0.80;99.90;;;;;;5010071;28;20179;-67
2022/12/04 05:12:31;;;;;;;21.50;8.73;;;0.80;99.90;;;;;;5006245;28;20620;-67
2022/12/04 05:14:56;;;;;;;12.53;7.00;;;0.80;99.90;;;;;;5009069;28;20434;-68
2022/12/04 05:17:22;;;;;;;18.57;8.67;;;0.80;99.90;;;;;;5008194;28;20236;-67
2022/12/04 05:19:54;;;;;;;14.90;7.57;;;0.80;99.90;;;;;;5011373;28;20191;-67
2022/12/04 05:22:34;;;;;;;19.40;8.73;;;0.80;99.90;;;;;;5008254;28;20202;-67
2022/12/04 05:25:00;;;;;;;20.47;8.27;;;0.80;99.90;;;;;;5009197;28;20468;-67
2022/12/04 05:27:27;;;;;;;19.00;7.93;;;0.80;99.90;;;;;;5009447;28;20430;-67
2022/12/04 05:29:55;;;;;;;13.87;7.17;;;0.80;99.90;;;;;;5007471;28;20440;-67
2022/12/04 05:32:23;;;;;;;19.73;7.97;;;0.70;99.90;;;;;;5009368;28;20509;-67
2022/12/04 05:34:50;;;;;;;12.40;7.20;;;0.70;99.90;;;;;;5007763;28;20434;-67
2022/12/04 05:37:16;;;;;;;12.10;6.60;;;0.70;99.90;;;;;;5002090;28;20624;-67
2022/12/04 05:39:42;;;;;;;16.80;8.00;;;0.70;99.90;;;;;;5002807;28;20950;-68
2022/12/04 05:42:07;;;;;;;17.07;7.97;;;0.70;99.90;;;;;;4984035;28;20282;-67
2022/12/04 05:44:33;;;;;;;12.00;6.10;;;0.80;99.90;;;;;;5009036;28;20211;-67
2022/12/04 05:46:59;;;;;;;14.93;6.93;;;0.70;99.90;;;;;;5008088;28;20437;-68
2022/12/04 05:49:27;;;;;;;14.33;6.50;;;0.70;99.90;;;;;;5004534;28;20550;-67
2022/12/04 05:51:52;;;;;;;18.20;8.40;;;0.70;99.90;;;;;;5006694;28;20210;-67
2022/12/04 05:54:18;;;;;;;19.00;7.53;;;0.80;99.90;;;;;;5013220;28;20456;-67
2022/12/04 05:56:44;;;;;;;14.57;6.20;;;0.80;99.90;;;;;;5013418;28;21396;-67
2022/12/04 05:59:10;;;;;;;13.57;7.10;;;0.80;99.90;;;;;;5014396;28;20191;-67
2022/12/04 06:01:36;;;;;;;17.93;6.30;;;0.80;99.90;;;;;;5012811;28;20442;-67
2022/12/04 06:04:02;;;;;;;17.00;7.93;;;0.80;99.90;;;;;;4995273;28;20249;-67
2022/12/04 06:06:27;;;;;;;22.63;9.27;;;0.80;99.90;;;;;;5013334;28;20187;-68
2022/12/04 06:08:57;;;;;;;17.87;7.37;;;0.80;99.90;;;;;;5012273;28;20465;-68
2022/12/04 06:11:27;;;;;;;19.17;8.13;;;0.70;99.90;;;;;;5010227;28;20183;-68
2022/12/04 06:13:53;;;;;;;25.70;7.50;;;0.70;99.90;;;;;;5011586;28;20883;-67
2022/12/04 06:16:28;;;;;;;18.00;7.83;;;0.80;99.90;;;;;;5012655;28;20462;-68
2022/12/04 06:18:57;;;;;;;19.53;6.77;;;0.70;99.90;;;;;;5011839;28;20441;-68
2022/12/04 06:21:25;;;;;;;17.63;6.67;;;0.70;99.90;;;;;;5013968;28;20467;-67
2022/12/04 06:23:51;;;;;;;21.00;6.90;;;0.70;99.90;;;;;;5012866;28;20465;-68
2022/12/04 06:26:16;;;;;;;21.43;8.53;;;0.70;99.90;;;;;;5012779;28;20875;-67
2022/12/04 06:28:42;;;;;;;24.57;7.47;;;0.70;99.90;;;;;;5010444;28;20437;-67
2022/12/04 06:31:10;;;;;;;11.30;6.23;;;0.70;99.90;;;;;;5011840;28;20183;-68
2022/12/04 06:33:36;;;;;;;32.10;8.77;;;0.70;99.90;;;;;;5011808;28;20183;-68
2022/12/04 06:36:08;;;;;;;14.23;6.83;;;0.70;99.90;;;;;;5011531;28;20778;-68
2022/12/04 06:38:34;;;;;;;19.60;6.17;;;0.70;99.90;;;;;;5003464;28;20610;-67
2022/12/04 06:41:06;;;;;;;17.20;8.37;;;0.70;99.90;;;;;;5011830;28;20464;-67
2022/12/04 06:43:32;;;;;;;19.50;8.97;;;0.70;99.90;;;;;;5010179;28;20492;-68
2022/12/04 06:46:04;;;;;;;17.00;7.73;;;0.80;99.90;;;;;;5011558;28;20442;-68
2022/12/04 06:48:31;;;;;;;18.00;6.93;;;0.80;99.90;;;;;;5010851;28;20449;-67
2022/12/04 06:51:05;;;;;;;18.83;7.17;;;0.80;99.90;;;;;;5011531;28;20426;-67
2022/12/04 06:53:32;;;;;;;16.13;7.47;;;0.80;99.90;;;;;;5006637;28;20784;-67
2022/12/04 06:55:59;;;;;;;14.13;8.27;;;0.80;99.90;;;;;;5008684;28;20426;-68
2022/12/04 06:58:26;;;;;;;17.37;7.87;;;0.80;99.90;;;;;;5006343;28;21253;-68
2022/12/04 07:00:52;;;;;;;15.47;6.97;;;0.80;99.90;;;;;;5010856;28;20599;-67
2022/12/04 07:03:18;;;;;;;14.13;6.67;;;0.80;99.90;;;;;;5009031;28;20520;-67
2022/12/04 07:05:43;;;;;;;14.33;7.10;;;0.80;99.90;;;;;;5012502;28;20460;-67
2022/12/04 07:08:09;;;;;;;16.13;6.63;;;0.80;99.90;;;;;;5009531;28;20175;-67
2022/12/04 07:10:35;;;;;;;11.13;6.23;;;0.80;99.90;;;;;;5011051;28;20552;-67
2022/12/04 07:13:01;;;;;;;14.20;7.23;;;0.80;99.90;;;;;;5010424;28;20242;-67
2022/12/04 07:15:27;;;;;;;18.63;7.00;;;0.80;99.90;;;;;;5011269;28;20765;-68
2022/12/04 07:17:52;;;;;;;14.77;6.43;;;0.80;99.90;;;;;;5010866;28;20453;-67
2022/12/04 07:20:18;;;;;;;16.23;6.07;;;0.80;99.90;;;;;;5010549;28;20314;-67
2022/12/04 07:22:44;;;;;;;14.93;6.93;;;0.80;99.90;;;;;;5009345;28;20179;-68
2022/12/04 07:25:09;;;;;;;16.53;8.40;;;0.80;99.90;;;;;;5013327;28;20659;-68
2022/12/04 07:27:35;;;;;;;22.50;7.80;;;0.90;99.90;;;;;;5011562;28;20187;-67
2022/12/04 07:30:00;;;;;;;20.10;7.93;;;0.90;99.90;;;;;;5009364;28;20198;-67
2022/12/04 07:32:26;;;;;;;20.70;8.13;;;0.90;99.90;;;;;;5009929;28;20179;-67
2022/12/04 07:34:52;;;;;;;18.20;7.07;;;0.90;99.90;;;;;;5009011;28;20292;-67
2022/12/04 07:37:17;;;;;;;15.17;7.00;;;0.90;99.90;;;;;;5009465;28;20191;-68
2022/12/04 07:39:43;;;;;;;19.53;8.17;;;0.90;99.90;;;;;;5009809;28;20270;-68
2022/12/04 07:42:08;;;;;;;18.63;7.37;;;0.90;99.90;;;;;;5010759;28;20324;-68
2022/12/04 07:44:34;;;;;;;17.83;8.37;;;0.90;99.90;;;;;;5009247;28;20219;-68
2022/12/04 07:47:00;;;;;;;16.03;8.80;;;0.90;99.90;;;;;;5010428;28;20191;-67
2022/12/04 07:49:25;;;;;;;18.57;7.07;;;0.90;99.90;;;;;;5011142;28;20623;-68
2022/12/04 07:51:51;;;;;;;13.40;7.03;;;0.90;99.90;;;;;;5010532;28;20262;-68
2022/12/04 07:54:16;;;;;;;15.07;6.90;;;0.90;99.90;;;;;;5010635;28;20194;-68
2022/12/04 07:56:42;;;;;;;13.90;6.40;;;1.00;99.90;;;;;;5009628;28;20680;-68
2022/12/04 07:59:07;;;;;;;9.17;5.90;;;1.00;99.90;;;;;;5009796;28;20270;-68
2022/12/04 08:01:33;;;;;;;12.37;6.37;;;1.00;99.90;;;;;;5008812;28;20242;-68
2022/12/04 08:03:59;;;;;;;18.93;8.17;;;1.00;99.90;;;;;;5009080;28;20203;-67
2022/12/04 08:06:27;;;;;;;16.37;7.93;;;1.00;99.90;;;;;;5003696;28;20215;-67
2022/12/04 08:08:52;;;;;;;16.40;7.40;;;1.10;99.90;;;;;;5002959;28;20617;-68
2022/12/04 08:11:21;;;;;;;13.37;6.23;;;1.10;99.90;;;;;;5006397;28;20639;-67
2022/12/04 08:13:47;;;;;;;12.10;5.40;;;1.10;99.90;;;;;;5008646;28;20183;-67
2022/12/04 08:16:14;;;;;;;13.10;6.93;;;1.10;99.90;;;;;;5007241;28;20453;-67
2022/12/04 08:18:41;;;;;;;14.93;7.37;;;1.10;99.90;;;;;;5008017;28;20448;-67
2022/12/04 08:21:10;;;;;;;15.87;6.43;;;1.10;99.90;;;;;;5013962;28;20966;-67
2022/12/04 08:23:37;;;;;;;13.57;6.67;;;1.10;99.90;;;;;;5002634;28;20468;-68
2022/12/04 08:26:03;;;;;;;13.00;6.10;;;1.10;99.90;;;;;;5002074;28;20513;-67
2022/12/04 08:28:30;;;;;;;13.00;7.20;;;1.10;99.90;;;;;;5004878;28;20449;-68
2022/12/04 08:31:02;;;;;;;19.27;7.17;;;1.10;99.90;;;;;;5006753;28;20468;-68
2022/12/04 08:33:28;;;;;;;13.10;6.97;;;1.10;99.90;;;;;;5006942;28;20449;-67
2022/12/04 08:35:53;;;;;;;18.43;5.73;;;1.20;99.90;;;;;;5003063;28;20521;-67
2022/12/04 08:38:19;;;;;;;14.37;7.33;;;1.20;99.90;;;;;;5009432;28;20221;-67
2022/12/04 08:40:45;;;;;;;13.80;6.27;;;1.20;99.90;;;;;;5007290;28;20249;-67
2022/12/04 08:43:10;;;;;;;20.60;7.13;;;1.20;99.90;;;;;;5007087;28;20203;-67
2022/12/04 08:45:36;;;;;;;12.20;6.57;;;1.20;99.90;;;;;;5010799;28;20190;-67
2022/12/04 08:48:01;;;;;;;11.40;6.10;;;1.20;99.90;;;;;;5008079;28;20218;-68
2022/12/04 08:50:27;;;;;;;30.43;7.50;;;1.20;99.90;;;;;;5008639;28;20198;-67
2022/12/04 08:52:52;;;;;;;12.87;5.23;;;1.20;99.90;;;;;;5009155;28;20183;-67
2022/12/04 08:55:18;;;;;;;8.80;6.00;;;1.20;99.90;;;;;;5009679;28;20264;-67
2022/12/04 08:57:43;;;;;;;12.83;6.00;;;1.20;99.90;;;;;;5010834;28;20555;-68
2022/12/04 09:00:11;;;;;;;16.27;7.00;;;1.20;99.90;;;;;;5009630;28;20232;-67
2022/12/04 09:02:37;;;;;;;13.13;5.20;;;1.20;99.90;;;;;;5008860;28;20183;-67
2022/12/04 09:05:03;;;;;;;16.27;6.93;;;1.20;99.90;;;;;;5008567;28;20801;-67
2022/12/04 09:07:28;;;;;;;21.77;7.00;;;1.20;99.90;;;;;;5010206;28;20217;-68
2022/12/04 09:09:54;;;;;;;22.83;9.73;;;1.20;99.90;;;;;;4991124;28;20254;-68
2022/12/04 09:12:19;;;;;;;18.67;6.90;;;1.20;99.90;;;;;;5007954;28;20199;-67
2022/12/04 09:14:45;;;;;;;12.00;6.63;;;1.30;99.90;;;;;;5004717;28;20632;-68
2022/12/04 09:17:10;;;;;;;19.37;8.23;;;1.30;99.90;;;;;;5010932;28;20194;-67
2022/12/04 09:19:36;;;;;;;15.27;6.47;;;1.20;99.90;;;;;;5009479;28;20184;-67
2022/12/04 09:22:02;;;;;;;13.23;6.50;;;1.30;99.90;;;;;;5010039;28;20591;-67
2022/12/04 09:24:29;;;;;;;15.30;7.33;;;1.30;99.90;;;;;;5009081;28;20215;-67
2022/12/04 09:26:55;;;;;;;21.20;7.57;;;1.30;99.90;;;;;;5011940;28;20190;-68
2022/12/04 09:29:20;;;;;;;15.67;6.97;;;1.30;99.90;;;;;;5009033;28;20446;-68
2022/12/04 09:31:46;;;;;;;17.80;6.20;;;1.30;99.90;;;;;;5011593;28;20194;-68
2022/12/04 09:34:12;;;;;;;16.47;7.97;;;1.40;99.90;;;;;;5014244;28;20262;-68
2022/12/04 09:36:37;;;;;;;17.63;7.40;;;1.40;99.90;;;;;;5013975;28;20616;-68
2022/12/04 09:39:03;;;;;;;17.50;7.57;;;1.40;99.90;;;;;;5010031;28;20289;-68
2022/12/04 09:41:35;;;;;;;19.17;7.13;;;1.40;99.90;;;;;;5014493;28;20191;-68
2022/12/04 09:44:06;;;;;;;21.57;8.40;;;1.30;99.90;;;;;;5011256;28;20469;-68
2022/12/04 09:46:38;;;;;;;24.03;8.30;;;1.30;99.90;;;;;;5012543;28;20484;-68
2022/12/04 09:49:13;;;;;;;15.27;6.87;;;1.30;99.90;;;;;;5013308;28;20883;-68
2022/12/04 09:51:40;;;;;;;18.27;8.27;;;1.30;99.90;;;;;;5013618;28;20504;-68
2022/12/04 09:54:12;;;;;;;22.00;9.27;;;1.40;99.90;;;;;;5012233;28;20445;-68
2022/12/04 09:56:38;;;;;;;17.87;8.30;;;1.40;99.90;;;;;;5012889;28;20858;-68
2022/12/04 09:59:18;;;;;;;19.07;8.77;;;1.40;99.90;;;;;;5013009;28;20520;-68
2022/12/04 10:01:50;;;;;;;17.20;7.50;;;1.40;99.90;;;;;;5013407;28;20187;-68
2022/12/04 10:04:17;;;;;;;19.23;8.60;;;1.40;99.90;;;;;;5012055;28;20477;-68
2022/12/04 10:06:54;;;;;;;17.63;7.63;;;1.40;99.90;;;;;;5013482;28;20508;-68
2022/12/04 10:10:01;;;;;;;16.33;7.43;;;1.30;99.90;;;;;;5022979;28;20421;-68
2022/12/04 10:12:46;;;;;;;28.13;10.03;;;1.40;99.90;;;;;;5009858;28;20448;-69
2022/12/04 10:15:43;;;;;;;12.50;6.57;;;1.40;99.90;;;;;;5015060;28;20473;-68
2022/12/04 10:18:20;;;;;;;24.40;9.00;;;1.40;99.90;;;;;;5013374;28;20505;-68
2022/12/04 10:20:54;;;;;;;21.87;9.10;;;1.30;99.90;;;;;;5023137;28;21631;-68
2022/12/04 10:23:24;;;;;;;16.93;10.07;;;1.40;99.90;;;;;;5014423;28;20421;-68
2022/12/04 10:25:53;;;;;;;30.67;9.70;;;1.40;99.90;;;;;;5013965;28;20525;-68
2022/12/04 10:28:28;;;;;;;15.40;7.17;;;1.40;99.90;;;;;;5012638;28;20804;-68
2022/12/04 10:30:58;;;;;;;18.03;8.93;;;1.40;99.90;;;;;;5012904;28;20913;-68
2022/12/04 10:33:43;;;;;;;21.13;8.00;;;1.40;99.90;;;;;;5007266;28;20450;-68
2022/12/04 10:36:13;;;;;;;14.33;7.27;;;1.40;99.90;;;;;;5008540;28;20438;-68
2022/12/04 10:38:47;;;;;;;17.10;7.07;;;1.40;99.90;;;;;;5012094;28;20454;-68
2022/12/04 10:41:27;;;;;;;17.40;7.57;;;1.40;99.90;;;;;;5010463;28;20437;-68
2022/12/04 10:43:53;;;;;;;20.07;7.57;;;1.40;99.90;;;;;;5006929;28;20469;-68
2022/12/04 10:46:30;;;;;;;17.90;8.20;;;1.40;99.90;;;;;;5008316;28;20449;-68
2022/12/04 10:49:01;;;;;;;16.90;7.83;;;1.40;99.90;;;;;;5008448;28;20183;-68
2022/12/04 10:51:31;;;;;;;15.60;7.13;;;1.40;99.90;;;;;;5012257;28;20437;-68
2022/12/04 10:53:57;;;;;;;20.00;8.93;;;1.50;99.90;;;;;;5013156;28;20453;-68
2022/12/04 10:56:25;;;;;;;17.13;7.70;;;1.50;99.90;;;;;;5013178;28;20441;-68
2022/12/04 10:59:02;;;;;;;16.70;7.97;;;1.50;99.90;;;;;;5011817;28;20495;-68
2022/12/04 11:01:30;;;;;;;16.90;7.87;;;1.60;99.90;;;;;;5012058;28;20453;-68
2022/12/04 11:04:08;;;;;;;20.40;6.90;;;1.60;99.90;;;;;;5012615;28;20513;-68
2022/12/04 11:06:34;;;;;;;16.03;6.40;;;1.50;99.90;;;;;;5013047;28;20429;-68
2022/12/04 11:09:01;;;;;;;21.63;7.23;;;1.50;99.90;;;;;;5013033;28;20430;-68
2022/12/04 11:11:30;;;;;;;15.97;7.10;;;1.50;99.90;;;;;;5011378;28;20469;-68
2022/12/04 11:14:01;;;;;;;24.27;8.50;;;1.40;99.90;;;;;;5010315;28;20442;-68
2022/12/04 11:16:48;;;;;;;17.40;8.37;;;1.40;99.90;;;;;;5011694;28;20499;-68
2022/12/04 11:19:29;;;;;;;15.43;6.93;;;1.50;99.90;;;;;;5011194;28;20453;-68
2022/12/04 11:22:04;;;;;;;20.13;8.33;;;1.50;99.90;;;;;;5009136;28;20529;-69
2022/12/04 11:24:39;;;;;;;23.77;10.20;;;1.50;99.90;;;;;;5008630;28;20469;-68
2022/12/04 11:27:06;;;;;;;20.47;10.23;;;1.50;99.90;;;;;;5010285;28;20933;-68
2022/12/04 11:29:39;;;;;;;29.13;13.10;;;1.50;99.90;;;;;;5006294;28;20441;-68
2022/12/04 11:32:06;;;;;;;19.50;8.73;;;1.40;99.90;;;;;;5011720;28;20418;-68
2022/12/04 11:34:39;;;;;;;22.37;8.77;;;1.40;99.90;;;;;;5011808;28;20430;-68
2022/12/04 11:37:15;;;;;;;15.90;7.30;;;1.40;99.90;;;;;;5011307;28;20442;-66
2022/12/04 11:39:43;;;;;;;23.47;8.97;;;1.40;99.90;;;;;;5017940;28;20799;-67
2022/12/04 11:42:12;;;;;;;15.77;7.13;;;1.40;99.90;;;;;;5011553;28;20891;-67
2022/12/04 11:44:38;;;;;;;22.13;6.60;;;1.50;99.90;;;;;;5011629;28;20465;-67
2022/12/04 11:47:05;;;;;;;15.07;6.93;;;1.40;99.90;;;;;;5011198;28;20446;-67
2022/12/04 11:49:32;;;;;;;20.83;10.03;;;1.50;99.90;;;;;;5017492;28;20464;-67
2022/12/04 11:52:06;;;;;;;20.30;8.33;;;1.50;99.90;;;;;;5011926;28;20426;-67
2022/12/04 11:54:38;;;;;;;15.80;6.87;;;1.50;99.90;;;;;;5011048;28;20532;-68
2022/12/04 11:57:25;;;;;;;19.63;8.50;;;1.50;99.90;;;;;;5011730;28;20426;-67
2022/12/04 12:00:18;;;;;;;25.70;8.80;;;1.60;99.90;;;;;;5011561;28;20418;-67
2022/12/04 12:02:52;;;;;;;16.80;7.60;;;1.50;99.90;;;;;;5009442;28;20854;-67
2022/12/04 12:05:48;;;;;;;25.70;9.90;;;1.50;99.90;;;;;;5009200;28;20831;-67
2022/12/04 12:08:33;;;;;;;17.63;8.40;;;1.60;99.90;;;;;;5010354;28;20417;-67
2022/12/04 12:11:17;;;;;;;15.30;7.83;;;1.70;99.90;;;;;;5011431;28;20421;-67
2022/12/04 12:13:47;;;;;;;21.43;8.83;;;1.70;99.90;;;;;;5009867;28;20587;-68
2022/12/04 12:16:42;;;;;;;20.07;8.60;;;1.70;99.90;;;;;;5010297;28;20438;-68
2022/12/04 12:19:20;;;;;;;20.77;9.30;;;1.70;99.90;;;;;;5014932;28;20441;-67
2022/12/04 12:22:06;;;;;;;25.13;11.07;;;1.70;99.90;;;;;;5020034;28;20434;-67
2022/12/04 12:24:44;;;;;;;33.87;10.90;;;1.70;99.90;;;;;;5010905;28;20623;-69
2022/12/04 12:27:22;;;;;;;12.67;7.80;;;1.70;99.90;;;;;;5006290;28;20464;-67
2022/12/04 12:30:16;;;;;;;16.27;8.40;;;1.70;99.90;;;;;;5009361;28;20933;-67
2022/12/04 12:33:10;;;;;;;24.60;9.60;;;1.70;99.90;;;;;;5010948;28;20421;-68
2022/12/04 12:36:04;;;;;;;20.93;8.97;;;1.70;99.90;;;;;;5006341;28;20461;-68
2022/12/04 12:38:39;;;;;;;22.33;9.53;;;1.70;99.90;;;;;;5001460;28;20461;-69
2022/12/04 12:41:09;;;;;;;28.83;11.20;;;1.70;99.90;;;;;;5008957;28;20787;-69
2022/12/04 12:43:38;;;;;;;18.90;8.30;;;1.70;99.90;;;;;;5008301;28;20500;-69
2022/12/04 12:46:29;;;;;;;20.30;9.73;;;1.80;99.90;;;;;;5010346;28;20461;-68
2022/12/04 12:49:12;;;;;;;44.40;16.27;;;1.70;99.90;;;;;;5010319;28;20957;-68
2022/12/04 12:51:51;;;;;;;15.93;9.10;;;1.70;99.90;;;;;;5000901;28;20501;-69
2022/12/04 12:54:38;;;;;;;26.23;11.67;;;1.70;99.90;;;;;;5007835;28;20508;-69
2022/12/04 12:57:23;;;;;;;20.23;10.20;;;1.70;99.90;;;;;;5010305;28;20433;-69
2022/12/04 12:59:53;;;;;;;17.30;9.70;;;1.70;99.90;;;;;;5010611;28;20426;-69
2022/12/04 13:02:28;;;;;;;31.30;11.33;;;1.80;99.90;;;;;;5006231;28;20767;-69
2022/12/04 13:04:58;;;;;;;17.00;8.97;;;1.80;99.90;;;;;;5010639;28;20464;-70
2022/12/04 13:07:38;;;;;;;20.20;10.33;;;1.80;99.90;;;;;;5010834;28;20464;-70
2022/12/04 13:10:15;;;;;;;27.80;11.20;;;1.80;99.90;;;;;;5010864;28;20418;-68
2022/12/04 13:12:57;;;;;;;29.73;10.03;;;1.80;99.90;;;;;;5009421;28;20480;-69
2022/12/04 13:15:32;;;;;;;22.57;10.30;;;1.70;99.90;;;;;;5010284;28;20976;-69